createdAt,value
2019-03-16T00:02:49.327Z,"    0"
2019-03-16T00:07:44.744Z,"    0"
2019-03-16T00:12:40.613Z,"    0"
2019-03-16T00:17:37.009Z,"    0"
2019-03-16T00:22:32.972Z,"    0"
2019-03-16T00:27:29.294Z,"    0"
2019-03-16T00:32:25.697Z,"    0"
2019-03-16T00:37:22.627Z,"    0"
2019-03-16T00:42:17.934Z,"    0"
2019-03-16T00:47:13.629Z,"    0"
2019-03-16T00:52:10.793Z,"    0"
2019-03-16T00:57:07.470Z,"    0"
2019-03-16T01:02:02.721Z,"    0"
2019-03-16T01:06:58.145Z,"    0"
2019-03-16T01:11:54.116Z,"    0"
2019-03-16T01:16:49.709Z,"    0"
2019-03-16T01:21:46.408Z,"    0"
2019-03-16T01:26:41.590Z,"    0"
2019-03-16T01:31:37.319Z,"    0"
2019-03-16T01:36:33.061Z,"    0"
2019-03-16T01:41:29.336Z,"    0"
2019-03-16T01:46:25.303Z,"    0"
2019-03-16T01:51:21.333Z,"    0"
2019-03-16T01:56:17.066Z,"    0"
2019-03-16T02:01:12.782Z,"    0"
2019-03-16T02:06:08.425Z,"    0"
2019-03-16T02:11:04.659Z,"    0"
2019-03-16T02:16:10.229Z,"    0"
2019-03-16T02:21:00.709Z,"    0"
2019-03-16T02:25:56.089Z,"    0"
2019-03-16T02:30:51.713Z,"    0"
2019-03-16T02:35:48.473Z,"    0"
2019-03-16T02:40:45.062Z,"    0"
2019-03-16T02:45:40.447Z,"    0"
2019-03-16T02:50:36.242Z,"    0"
2019-03-16T02:55:32.123Z,"    0"
2019-03-16T03:00:29.448Z,"    0"
2019-03-16T03:05:24.859Z,"    0"
2019-03-16T03:10:21.373Z,"    0"
2019-03-16T03:15:17.837Z,"    0"
2019-03-16T03:20:13.105Z,"    0"
2019-03-16T03:25:09.712Z,"    0"
2019-03-16T03:30:05.797Z,"    0"
2019-03-16T03:35:01.819Z,"    0"
2019-03-16T03:39:58.335Z,"    0"
2019-03-16T03:44:53.794Z,"    0"
2019-03-16T03:49:50.030Z,"    0"
2019-03-16T03:54:45.656Z,"    0"
2019-03-16T03:59:41.265Z,"    0"
2019-03-16T04:04:38.189Z,"    0"
2019-03-16T04:09:34.971Z,"    0"
2019-03-16T04:14:30.396Z,"    0"
2019-03-16T04:19:26.114Z,"    0"
2019-03-16T04:24:21.602Z,"    0"
2019-03-16T04:29:17.911Z,"    0"
2019-03-16T04:34:28.101Z,"    0"
2019-03-16T04:39:13.833Z,"    0"
2019-03-16T04:44:09.434Z,"    0"
2019-03-16T04:49:05.363Z,"    0"
2019-03-16T04:54:01.180Z,"    0"
2019-03-16T04:58:56.666Z,"    0"
2019-03-16T05:03:53.676Z,"    0"
2019-03-16T05:08:48.871Z,"    0"
2019-03-16T05:13:44.647Z,"    0"
2019-03-16T05:18:41.063Z,"    0"
2019-03-16T05:23:36.721Z,"    0"
2019-03-16T05:28:32.555Z,"    0"
2019-03-16T05:33:28.214Z,"    0"
2019-03-16T05:38:24.044Z,"    0"
2019-03-16T05:43:19.767Z,"    0"
2019-03-16T05:48:15.499Z,"    0"
2019-03-16T05:53:11.097Z,"    0"
2019-03-16T05:58:06.763Z,"    0"
2019-03-16T06:03:02.428Z,"    0"
2019-03-16T06:07:58.183Z,"    5"
2019-03-16T06:12:53.996Z,"    5"
2019-03-16T06:17:49.472Z,"   10"
2019-03-16T06:22:45.240Z,"   10"
2019-03-16T06:27:41.809Z,"   10"
2019-03-16T06:32:37.362Z,"   15"
2019-03-16T06:37:33.359Z,"   15"
2019-03-16T06:42:29.044Z,"   20"
2019-03-16T06:47:25.875Z,"   25"
2019-03-16T06:52:21.889Z,"   35"
2019-03-16T06:57:17.514Z,"   35"
2019-03-16T07:02:13.852Z,"   30"
2019-03-16T07:07:09.475Z,"   30"
2019-03-16T07:12:05.175Z,"   25"
2019-03-16T07:17:02.411Z,"   30"
2019-03-16T07:21:58.178Z,"   35"
2019-03-16T07:26:53.934Z,"   30"
2019-03-16T07:31:49.799Z,"   35"
2019-03-16T07:36:45.470Z,"   35"
2019-03-16T07:41:41.235Z,"   60"
2019-03-16T07:46:37.132Z,"   30"
2019-03-16T07:51:32.828Z,"   35"
2019-03-16T07:56:28.359Z,"   35"
2019-03-16T08:01:25.036Z,"   45"
2019-03-16T08:06:20.962Z,"   45"
2019-03-16T08:11:16.633Z,"   50"
2019-03-16T08:16:12.531Z,"   50"
2019-03-16T08:21:09.384Z,"   80"
2019-03-16T08:26:05.031Z,"   60"
2019-03-16T08:31:00.782Z,"   55"
2019-03-16T08:35:57.762Z,"   40"
2019-03-16T08:40:53.116Z,"   45"
2019-03-16T08:45:48.638Z,"   35"
2019-03-16T08:50:45.794Z,"   45"
2019-03-16T08:55:40.953Z,"   65"
2019-03-16T09:00:37.027Z,"   55"
2019-03-16T09:05:32.809Z,"   60"
2019-03-16T09:10:28.724Z,"   45"
2019-03-16T09:15:24.740Z,"   65"
2019-03-16T09:20:20.224Z,"   85"
2019-03-16T09:25:17.597Z,"   85"
2019-03-16T09:30:14.111Z,"   70"
2019-03-16T09:35:10.456Z,"   90"
2019-03-16T09:40:07.180Z,"  135"
2019-03-16T09:45:02.855Z,"  105"
2019-03-16T09:49:58.910Z,"  105"
2019-03-16T09:54:54.907Z,"   90"
2019-03-16T09:59:50.792Z,"   85"
2019-03-16T10:04:47.791Z,"  100"
2019-03-16T10:09:43.298Z,"   80"
2019-03-16T10:14:39.229Z,"   95"
2019-03-16T10:19:35.703Z,"   80"
2019-03-16T10:24:31.437Z,"  105"
2019-03-16T10:29:27.272Z,"   80"
2019-03-16T10:34:23.053Z,"   95"
2019-03-16T10:39:18.814Z,"   80"
2019-03-16T10:44:15.392Z,"   65"
2019-03-16T10:49:11.084Z,"   70"
2019-03-16T10:54:07.075Z,"   80"
2019-03-16T10:59:02.858Z,"   55"
2019-03-16T11:03:59.033Z,"   55"
2019-03-16T11:08:54.567Z,"   50"
2019-03-16T11:13:50.592Z,"   55"
2019-03-16T11:18:46.419Z,"   60"
2019-03-16T11:23:42.607Z,"   60"
2019-03-16T11:28:38.467Z,"   75"
2019-03-16T11:33:34.334Z,"   65"
2019-03-16T11:38:31.128Z,"   70"
2019-03-16T11:43:27.771Z,"  110"
2019-03-16T11:48:24.883Z,"  105"
2019-03-16T11:53:20.515Z,"  135"
2019-03-16T11:58:16.395Z,"  100"
2019-03-16T12:03:12.280Z,"  100"
2019-03-16T12:08:08.077Z,"   90"
2019-03-16T12:13:16.505Z,"   75"
2019-03-16T12:18:03.139Z,"   75"
2019-03-16T12:22:59.130Z,"   75"
2019-03-16T12:27:54.995Z,"   80"
2019-03-16T12:32:51.738Z,"   95"
2019-03-16T12:37:47.403Z,"   85"
2019-03-16T12:42:43.266Z,"   80"
2019-03-16T12:47:38.912Z,"   75"
2019-03-16T12:52:35.780Z,"   80"
2019-03-16T12:57:31.719Z,"  105"
2019-03-16T13:02:27.752Z,"  115"
2019-03-16T13:07:23.518Z,"  280"
2019-03-16T13:12:21.401Z,"  140"
2019-03-16T13:17:16.900Z,"  150"
2019-03-16T13:22:12.776Z,"  135"
2019-03-16T13:27:08.803Z,"  130"
2019-03-16T13:32:05.342Z,"  110"
2019-03-16T13:37:01.833Z,"  120"
2019-03-16T13:41:58.325Z,"   95"
2019-03-16T13:46:54.151Z,"   70"
2019-03-16T13:51:49.779Z,"   60"
2019-03-16T13:56:45.269Z,"   50"
2019-03-16T14:01:41.844Z,"   40"
2019-03-16T14:06:37.240Z,"   50"
2019-03-16T14:11:32.970Z,"   70"
2019-03-16T14:16:28.847Z,"   70"
2019-03-16T14:21:25.013Z,"   55"
2019-03-16T14:26:20.800Z,"   45"
2019-03-16T14:31:16.219Z,"   75"
2019-03-16T14:36:12.499Z,"   70"
2019-03-16T14:41:08.922Z,"  105"
2019-03-16T14:46:05.582Z,"  100"
2019-03-16T14:51:01.738Z,"   75"
2019-03-16T14:55:57.585Z,"  105"
2019-03-16T15:00:54.333Z,"   95"
2019-03-16T15:05:51.188Z,"  100"
2019-03-16T15:10:47.112Z,"  145"
2019-03-16T15:15:44.131Z,"  135"
2019-03-16T15:20:39.786Z,"  125"
2019-03-16T15:25:35.798Z,"  155"
2019-03-16T15:30:31.265Z,"   80"
2019-03-16T15:35:27.374Z,"  110"
2019-03-16T15:40:23.262Z,"   65"
2019-03-16T15:45:18.763Z,"   65"
2019-03-16T15:50:14.297Z,"   60"
2019-03-16T15:55:10.502Z,"   70"
2019-03-16T16:00:06.245Z,"   70"
2019-03-16T16:05:02.997Z,"   70"
2019-03-16T16:09:58.634Z,"   55"
2019-03-16T16:14:54.435Z,"   25"
2019-03-16T16:19:49.988Z,"   40"
2019-03-16T16:24:45.539Z,"   40"
2019-03-16T16:29:42.254Z,"   30"
2019-03-16T16:34:38.692Z,"   40"
2019-03-16T16:39:33.973Z,"   45"
2019-03-16T16:44:29.739Z,"   40"
2019-03-16T16:49:25.221Z,"   35"
2019-03-16T16:54:21.927Z,"   30"
2019-03-16T16:59:17.661Z,"   20"
2019-03-16T17:04:13.489Z,"   30"
2019-03-16T17:09:11.292Z,"   10"
2019-03-16T17:14:07.604Z,"   15"
2019-03-16T17:19:02.930Z,"   10"
2019-03-16T17:23:58.721Z,"    5"
2019-03-16T17:28:54.348Z,"    0"
2019-03-16T17:33:49.913Z,"    0"
2019-03-16T17:38:46.798Z,"    0"
2019-03-16T17:43:42.172Z,"    0"
2019-03-16T17:48:38.141Z,"    0"
2019-03-16T17:53:34.347Z,"    0"
2019-03-16T17:58:29.967Z,"    0"
2019-03-16T18:03:26.404Z,"    0"
2019-03-16T18:08:23.282Z,"    0"
2019-03-16T18:13:18.564Z,"    0"
2019-03-16T18:18:15.556Z,"    0"
2019-03-16T18:23:11.933Z,"    0"
2019-03-16T18:28:07.909Z,"    0"
2019-03-16T18:33:03.542Z,"    0"
2019-03-16T18:37:59.276Z,"    0"
2019-03-16T18:42:54.933Z,"    0"
2019-03-16T18:47:50.728Z,"    0"
2019-03-16T18:52:46.402Z,"    0"
2019-03-16T18:57:42.011Z,"    0"
2019-03-16T19:02:37.705Z,"    0"
2019-03-16T19:07:33.604Z,"    0"
2019-03-16T19:12:30.880Z,"    0"
2019-03-16T19:17:26.333Z,"    0"
2019-03-16T19:22:22.115Z,"    0"
2019-03-16T19:27:19.235Z,"    0"
2019-03-16T19:32:17.039Z,"    0"
2019-03-16T19:37:13.389Z,"    0"
2019-03-16T19:42:09.153Z,"    0"
2019-03-16T19:47:04.981Z,"    0"
2019-03-16T19:52:00.648Z,"    0"
2019-03-16T19:56:56.230Z,"    0"
2019-03-16T20:01:51.948Z,"    0"
2019-03-16T20:06:47.923Z,"    0"
2019-03-16T20:11:44.937Z,"    0"
2019-03-16T20:16:40.836Z,"    0"
2019-03-16T20:21:36.681Z,"    0"
2019-03-16T20:26:32.410Z,"    0"
2019-03-16T20:31:28.675Z,"    0"
2019-03-16T20:36:24.874Z,"    0"
2019-03-16T20:41:20.269Z,"    0"
2019-03-16T20:46:17.167Z,"    0"
2019-03-16T20:51:13.949Z,"    0"
2019-03-16T20:56:10.509Z,"    0"
2019-03-16T21:01:07.269Z,"    0"
2019-03-16T21:06:02.710Z,"    0"
2019-03-16T21:10:58.748Z,"    0"
2019-03-16T21:15:54.900Z,"    0"
2019-03-16T21:20:51.697Z,"    0"
2019-03-16T21:25:47.092Z,"    0"
2019-03-16T21:30:43.585Z,"    0"
2019-03-16T21:35:39.740Z,"    0"
2019-03-16T21:40:36.467Z,"    0"
2019-03-16T21:45:32.844Z,"    0"
2019-03-16T21:50:28.227Z,"    0"
2019-03-16T21:55:23.938Z,"    0"
2019-03-16T22:00:19.743Z,"    0"
2019-03-16T22:05:15.483Z,"    0"
2019-03-16T22:10:12.252Z,"    0"
2019-03-16T22:15:07.692Z,"    0"
2019-03-16T22:20:04.359Z,"    0"
2019-03-16T22:25:00.278Z,"    0"
2019-03-16T22:29:56.412Z,"    0"
2019-03-16T22:34:52.255Z,"    0"
2019-03-16T22:39:48.001Z,"    0"
2019-03-16T22:44:43.938Z,"    0"
2019-03-16T22:49:40.631Z,"    0"
2019-03-16T22:54:36.277Z,"    0"
2019-03-16T22:59:31.704Z,"    0"
2019-03-16T23:04:28.499Z,"    0"
2019-03-16T23:09:24.194Z,"    0"
2019-03-16T23:14:20.106Z,"    0"
2019-03-16T23:19:16.470Z,"    0"
2019-03-16T23:24:13.248Z,"    0"
2019-03-16T23:29:08.735Z,"    0"
2019-03-16T23:34:05.270Z,"    0"
2019-03-16T23:39:02.402Z,"    0"
2019-03-16T23:43:58.612Z,"    0"
2019-03-16T23:48:55.123Z,"    0"
2019-03-16T23:53:50.643Z,"    0"
2019-03-16T23:58:47.434Z,"    0"
